METAR Data
IDs: Format: Raw Decoded Include TAF

Data at: 1033 UTC 26 Sep 2018

KAFN 260952Z AUTO 21006KT 10SM OVC004 19/19 A3004 RMK AO2 SLP177 T01940194
KAFN 260852Z AUTO 20007KT 180V250 6SM BR OVC003 19/19 A3005 RMK AO2 SLP178 T01890189 56021
KAFN 260844Z AUTO 22007G15KT 5SM BR OVC002 19/19 A3005 RMK AO2 T01890189
KAFN 260827Z AUTO 21007KT 2 1/2SM BR OVC002 19/19 A3005 RMK AO2 T01890189
KAFN 260810Z AUTO 21008KT 4SM BR OVC002 19/19 A3005 RMK AO2 T01890189
KAFN 260752Z AUTO 22007KT 2SM BR OVC002 19/19 A3005 RMK AO2 SLP180 T01890189
KAFN 260726Z AUTO 21004KT 2 1/2SM BR OVC002 19/19 A3007 RMK AO2 T01890189
KAFN 260652Z AUTO 21005KT 9SM OVC003 19/19 A3008 RMK AO2 SLP191 T01890189
KAFN 260624Z AUTO 21007KT 3SM BR OVC002 18/18 A3009 RMK AO2 T01830183
KAFN 260602Z AUTO 21007KT 2 1/2SM BR OVC002 18/18 A3011 RMK AO2 T01830183
KAFN 260552Z AUTO 21007KT 3SM BR OVC002 18/18 A3011 RMK AO2 RAE0455 SLP202 P0000 60002 T01830183 10183 20144 57018
KAFN 260459Z AUTO 00000KT 3SM BR OVC002 14/14 A3013 RMK AO2 RAE55 P0000 T01440144
KAFN 260452Z AUTO 00000KT 2 1/2SM -RA BR OVC002 14/14 A3013 RMK AO2 RAB29 SLP211 P0001 T01440144 401500050
KAFN 260436Z AUTO 00000KT 2 1/2SM -RA BR OVC002 14/14 A3014 RMK AO2 RAB29 P0000 T01440144
KAFN 260352Z AUTO 00000KT 4SM BR OVC003 14/14 A3015 RMK AO2 RAB23E41 SLP216 P0000 T01440144
KAFN 260338Z AUTO 00000KT 4SM -RA BR OVC003 14/14 A3016 RMK AO2 RAB23 P0000 T01440144
KAFN 260328Z AUTO 00000KT 2SM -RA BR OVC003 14/14 A3015 RMK AO2 RAB23 P0000 T01440144
KAFN 260252Z AUTO 00000KT 1 1/4SM BR OVC003 14/14 A3017 RMK AO2 SLP223 60001 T01440144 58020
KAFN 260243Z AUTO 00000KT 1SM BR VV003 14/14 A3017 RMK AO2 T01440144
KAFN 260235Z AUTO 00000KT 1 3/4SM BR OVC003 14/14 A3017 RMK AO2 T01440144
KAFN 260211Z AUTO 00000KT 6SM BR OVC004 14/14 A3018 RMK AO2 T01440144
KAFN 260152Z AUTO 01004KT 6SM BR OVC005 14/14 A3019 RMK AO2 RAB02E43 SLP231 P0000 T01440144
KAFN 260105Z AUTO 00000KT 7SM -RA OVC005 14/14 A3021 RMK AO2 RAB02 P0000 T01440144
KAFN 260052Z AUTO 00000KT 8SM OVC006 14/14 A3021 RMK AO2 RAE46 SLP239 P0001 T01440144
KAFN 260036Z AUTO 00000KT 5SM -RA BR OVC006 14/14 A3021 RMK AO2 CIG 002V008 P0001 T01440144
KAFN 260024Z AUTO 00000KT 6SM -RA BR OVC005 15/15 A3022 RMK AO2 P0000 T01500150
KAFN 252352Z AUTO 00000KT 6SM -RA BR OVC007 14/14 A3023 RMK AO2 SLP244 P0008 60061 T01440144 10150 20128 56019
KAFN 252337Z AUTO 00000KT 9SM -RA BKN005 OVC009 14/14 A3023 RMK AO2 CIG 002V007 P0007 T01440144
KAFN 252316Z AUTO 00000KT 3SM -RA BR BKN004 BKN011 OVC016 14/14 A3024 RMK AO2 P0007 T01440144
KAFN 252252Z AUTO 00000KT 2SM RA BR OVC006 14/14 A3024 RMK AO2 SLP250 P0014 T01440144
KAFN 252245Z AUTO 30004KT 2 1/2SM RA BR OVC008 15/15 A3024 RMK AO2 P0011 T01500150
KAFN 252237Z AUTO 00000KT 1 3/4SM +RA BR OVC008 15/15 A3024 RMK AO2 P0009 T01500150
KAFN 252230Z AUTO 00000KT 2SM RA BR BKN008 OVC012 15/15 A3024 RMK AO2 P0006 T01500150
KAFN 252208Z AUTO 00000KT 3SM -RA BR OVC010 14/14 A3025 RMK AO2 P0001 T01440144
KAFN 252152Z AUTO 00000KT 3SM -RA BR BKN007 OVC014 15/15 A3026 RMK AO2 SLP255 P0007 T01500150
KAFN 252052Z AUTO 00000KT 5SM -RA BR OVC007 14/14 A3029 RMK AO2 CIG 005V010 SLP265 P0003 60032 T01440144 56033
KAFN 251952Z AUTO VRB04KT 7SM -RA OVC008 14/14 A3030 RMK AO2 CIG 006V012 SLP269 P0012 T01440144
KAFN 251918Z AUTO VRB05KT 5SM -RA BR OVC007 14/14 A3033 RMK AO2 P0008 T01390139
KAFN 251852Z AUTO VRB03KT 2SM RA BR OVC008 13/13 A3035 RMK AO2 SLP286 P0017 T01330133
KAFN 251832Z AUTO 00000KT 4SM -RA BR OVC007 13/13 A3035 RMK AO2 P0011 T01330133
KAFN 251752Z AUTO VRB03KT 2 1/2SM RA BR OVC006 13/13 A3039 RMK AO2 CIG 005V010 SLP300 P0009 60037 T01280128 10128 20072 58035
KAFN 251652Z AUTO VRB03KT 5SM RA BR OVC006 12/12 A3042 RMK AO2 SLP313 P0009 T01220122
KAFN 251552Z AUTO 00000KT 4SM -RA BR BKN009 BKN026 OVC060 11/11 A3047 RMK AO2 SLP328 P0011 T01060106
KAFN 251526Z AUTO 00000KT 5SM -RA BR BKN007 BKN044 OVC070 11/11 A3048 RMK AO2 P0008 T01060106
KAFN 251519Z AUTO 00000KT 4SM -RA BR SCT007 BKN060 OVC080 10/10 A3048 RMK AO2 P0007 T01000100
KAFN 251505Z AUTO VRB03KT 2SM +RA BR FEW009 BKN060 OVC090 10/10 A3049 RMK AO2 P0005 T01000100
KAFN 251452Z AUTO VRB03KT 6SM -RA BR BKN065 BKN080 OVC090 10/10 A3049 RMK AO2 SLP336 P0004 60008 T01000100 58010
KAFN 251352Z AUTO 00000KT 10SM -RA OVC100 10/09 A3052 RMK AO2 SLP344 P0003 T01000094
KAFN 251252Z AUTO 00000KT 8SM -RA OVC100 09/08 A3053 RMK AO2 RAB10 SLP347 P0001 T00940083
KAFN 251204Z AUTO VRB03KT 10SM SCT019 SCT075 BKN110 08/06 A3052 RMK AO2 T00780061
KAFN 251152Z AUTO 00000KT 10SM BKN020 BKN100 07/06 A3052 RMK AO2 SLP347 T00720056 10072 20050 58009
KAFN 251052Z AUTO VRB03KT 10SM OVC019 06/05 A3054 RMK AO2 SLP353 T00610050
KAFN 251025Z AUTO 00000KT 10SM BKN021 06/05 A3055 RMK AO2 T00610050
KAFN 250952Z AUTO 00000KT 10SM BKN034 06/05 A3055 RMK AO2 SLP358 T00560050
KAFN 250852Z AUTO 00000KT 10SM FEW034 06/04 A3055 RMK AO2 SLP356 T00560044 56014
KAFN 250752Z AUTO 00000KT 10SM CLR 06/05 A3056 RMK AO2 SLP361 T00560050
KAFN 250652Z AUTO 00000KT 10SM CLR 05/04 A3058 RMK AO2 SLP364 T00500044
KAFN 250552Z AUTO 00000KT 10SM CLR 06/05 A3059 RMK AO2 SLP370 T00560050 10089 20050 58011
KAFN 250452Z AUTO 00000KT 10SM CLR 06/05 A3061 RMK AO2 SLP376 T00560050 401390050
KAFN 250352Z AUTO 00000KT 10SM CLR 06/05 A3062 RMK AO2 SLP381 T00560050
KAFN 250252Z AUTO 00000KT 10SM SCT022 07/06 A3062 RMK AO2 SLP382 T00720056 51007
KAFN 250152Z AUTO 00000KT 10SM OVC022 08/05 A3062 RMK AO2 SLP379 T00830050
KAFN 250052Z AUTO 00000KT 10SM OVC024 09/06 A3062 RMK AO2 SLP379 T00890056
KAFN 242352Z AUTO 00000KT 10SM OVC026 09/06 A3060 RMK AO2 SLP374 T00890061 10139 20083 53008
KAFN 242252Z AUTO 00000KT 10SM OVC027 09/06 A3059 RMK AO2 SLP368 T00940061